Time;durP1;ratioP1;P1;durP2;ratioP2;P2;SDS_P1;SDS_P2;PMS_P1;PMS_P2;Temp;Humidity;BMP_temperature;BMP_pressure;BME280_temperature;BME280_humidity;BME280_pressure;Samples;Min_cycle;Max_cycle;Signal;HPM_P1;HPM_P2
2022/06/18 00:00:39;;;;;;;;;;;19.10;67.70;;;;;;5034592;28;19905;-73
2022/06/18 00:03:04;;;;;;;;;;;19.00;67.50;;;;;;5034440;28;19905;-73
2022/06/18 00:05:33;;;;;;;;;;;19.00;69.00;;;;;;5032921;28;19954;-73
2022/06/18 00:07:58;;;;;;;;;;;19.00;68.60;;;;;;5034039;28;19909;-73
2022/06/18 00:10:25;;;;;;;;;;;19.00;68.60;;;;;;5034047;28;19915;-73
2022/06/18 00:15:36;;;;;;;;;;;18.90;67.70;;;;;;5034544;28;20267;-73
2022/06/18 00:18:02;;;;;;;;;;;18.90;68.40;;;;;;5034053;28;19912;-74
2022/06/18 00:20:32;;;;;;;;;;;18.80;69.10;;;;;;5033958;28;19912;-73
2022/06/18 00:22:59;;;;;;;;;;;18.80;68.10;;;;;;5033839;28;19924;-74
2022/06/18 00:25:28;;;;;;;;;;;18.70;68.20;;;;;;5034043;28;19909;-74
2022/06/18 00:27:54;;;;;;;;;;;18.70;69.00;;;;;;5034035;28;19921;-72
2022/06/18 00:30:20;;;;;;;;;;;18.60;69.70;;;;;;5033984;28;19909;-72
2022/06/18 00:32:46;;;;;;;;;;;18.60;69.60;;;;;;5034010;28;19913;-74
2022/06/18 00:35:14;;;;;;;;;;;18.60;69.40;;;;;;5034024;28;20354;-73
2022/06/18 00:37:40;;;;;;;;;;;18.60;69.20;;;;;;5033611;28;19905;-73
2022/06/18 00:40:19;;;;;;;;;;;18.50;69.20;;;;;;5038008;28;19905;-73
2022/06/18 00:42:44;;;;;;;;;;;18.50;69.40;;;;;;5037991;28;19905;-73
2022/06/18 00:45:13;;;;;;;;;;;18.40;69.70;;;;;;5037782;28;19995;-73
2022/06/18 00:47:47;;;;;;;;;;;18.50;68.90;;;;;;5037979;28;19987;-73
2022/06/18 00:50:17;;;;;;;;;;;18.50;68.40;;;;;;5037727;28;19959;-72
2022/06/18 00:52:48;;;;;;;;;;;18.50;69.40;;;;;;5038139;28;20252;-73
2022/06/18 00:55:24;;;;;;;;;;;18.50;68.20;;;;;;5037720;28;19905;-73
2022/06/18 00:57:53;;;;;;;;;;;18.50;68.80;;;;;;5037726;28;19905;-73
2022/06/18 01:00:38;;;;;;;;;;;18.50;67.50;;;;;;5037320;28;20359;-73
2022/06/18 01:03:05;;;;;;;;;;;18.50;68.50;;;;;;5037226;28;19905;-73
2022/06/18 01:05:35;;;;;;;;;;;18.50;68.20;;;;;;5036553;28;19951;-73
2022/06/18 01:08:03;;;;;;;;;;;18.50;68.50;;;;;;5037616;28;19971;-73
2022/06/18 01:10:29;;;;;;;;;;;18.50;68.20;;;;;;5037388;28;19912;-73
2022/06/18 01:12:55;;;;;;;;;;;18.50;68.30;;;;;;5037546;28;19909;-73
2022/06/18 01:15:21;;;;;;;;;;;18.50;67.80;;;;;;5037279;28;20058;-73
2022/06/18 01:17:48;;;;;;;;;;;18.50;68.70;;;;;;5037693;28;20042;-72
2022/06/18 01:20:14;;;;;;;;;;;18.50;68.40;;;;;;5037288;28;19905;-73
2022/06/18 01:22:46;;;;;;;;;;;18.40;68.70;;;;;;5037306;28;19912;-72
2022/06/18 01:25:12;;;;;;;;;;;18.40;69.10;;;;;;5036969;28;19905;-73
2022/06/18 01:27:37;;;;;;;;;;;18.40;69.00;;;;;;5037100;28;19920;-73
2022/06/18 01:30:07;;;;;;;;;;;18.40;68.30;;;;;;5036979;28;20266;-73
2022/06/18 01:32:33;;;;;;;;;;;18.60;68.90;;;;;;5037102;28;19917;-73
2022/06/18 01:34:59;;;;;;;;;;;18.30;69.70;;;;;;5036975;28;19909;-73
2022/06/18 01:37:26;;;;;;;;;;;18.30;69.70;;;;;;5037229;28;19905;-73
2022/06/18 01:39:51;;;;;;;;;;;18.40;69.60;;;;;;5036713;28;20351;-72
2022/06/18 01:42:22;;;;;;;;;;;18.40;69.40;;;;;;5036851;28;20029;-72
2022/06/18 01:44:47;;;;;;;;;;;18.40;68.60;;;;;;5037033;28;20271;-73
2022/06/18 01:47:18;;;;;;;;;;;18.50;68.80;;;;;;5036665;28;19912;-73
2022/06/18 01:49:47;;;;;;;;;;;18.50;68.80;;;;;;5036038;28;20410;-73
2022/06/18 01:52:13;;;;;;;;;;;18.50;68.60;;;;;;5036659;28;20394;-72
2022/06/18 01:54:44;;;;;;;;;;;18.50;69.80;;;;;;5036442;28;19913;-73
2022/06/18 01:57:18;;;;;;;;;;;18.40;69.50;;;;;;5036485;28;20359;-73
2022/06/18 01:59:46;;;;;;;;;;;18.40;69.00;;;;;;5036549;28;20402;-73
2022/06/18 02:02:12;;;;;;;;;;;18.40;69.70;;;;;;5036463;28;19909;-72
2022/06/18 02:04:37;;;;;;;;;;;18.30;70.30;;;;;;5036468;28;19975;-73
2022/06/18 02:07:05;;;;;;;;;;;18.30;69.20;;;;;;5036217;28;19905;-74
2022/06/18 02:09:36;;;;;;;;;;;18.30;69.20;;;;;;5036398;28;19905;-73
2022/06/18 02:12:04;;;;;;;;;;;18.30;69.20;;;;;;5036269;28;20425;-73
2022/06/18 02:14:32;;;;;;;;;;;18.30;69.60;;;;;;5036128;28;19909;-72
2022/06/18 02:17:00;;;;;;;;;;;18.30;69.50;;;;;;5036270;28;19905;-76
2022/06/18 02:19:25;;;;;;;;;;;18.30;69.20;;;;;;5035945;28;19905;-73
2022/06/18 02:21:53;;;;;;;;;;;18.40;70.10;;;;;;5035926;28;20359;-73
2022/06/18 02:24:19;;;;;;;;;;;18.40;69.20;;;;;;5036188;28;19905;-73
2022/06/18 02:26:45;;;;;;;;;;;18.40;69.50;;;;;;5036355;28;19924;-74
2022/06/18 02:29:16;;;;;;;;;;;18.50;70.70;;;;;;5036033;28;19909;-72
2022/06/18 02:31:45;;;;;;;;;;;18.50;69.60;;;;;;5035804;28;19916;-73
2022/06/18 02:34:13;;;;;;;;;;;18.50;69.80;;;;;;5035658;28;19975;-73
2022/06/18 02:36:40;;;;;;;;;;;18.50;69.70;;;;;;5036125;28;19912;-73
2022/06/18 02:39:12;;;;;;;;;;;18.50;69.80;;;;;;5035766;28;19928;-73
2022/06/18 02:41:40;;;;;;;;;;;18.50;69.60;;;;;;5035693;28;19912;-73
2022/06/18 02:44:06;;;;;;;;;;;18.50;69.40;;;;;;5035745;28;19905;-73
2022/06/18 02:46:32;;;;;;;;;;;18.50;69.80;;;;;;5035809;28;20386;-73
2022/06/18 02:49:00;;;;;;;;;;;18.60;69.40;;;;;;5035289;28;19909;-73
2022/06/18 02:51:26;;;;;;;;;;;18.60;69.20;;;;;;5035916;28;19915;-72
2022/06/18 02:53:52;;;;;;;;;;;18.60;69.20;;;;;;5035245;28;19909;-72
2022/06/18 02:56:17;;;;;;;;;;;18.60;69.10;;;;;;5035425;28;19909;-73
2022/06/18 02:58:44;;;;;;;;;;;18.60;68.90;;;;;;5035451;28;19909;-73
2022/06/18 03:01:11;;;;;;;;;;;18.70;69.90;;;;;;5034319;28;19944;-73
2022/06/18 03:03:38;;;;;;;;;;;18.60;69.60;;;;;;5035391;28;19988;-73
2022/06/18 03:06:05;;;;;;;;;;;18.70;68.80;;;;;;5035260;28;19943;-72
2022/06/18 03:08:31;;;;;;;;;;;18.70;68.90;;;;;;5033953;28;19905;-73
2022/06/18 03:13:41;;;;;;;;;;;18.70;69.30;;;;;;5035194;28;19916;-73
2022/06/18 03:16:11;;;;;;;;;;;18.80;69.30;;;;;;5035405;28;20277;-73
2022/06/18 03:18:38;;;;;;;;;;;18.80;69.70;;;;;;5035214;28;20267;-73
2022/06/18 03:21:03;;;;;;;;;;;18.80;69.20;;;;;;5034936;28;19951;-73
2022/06/18 03:23:29;;;;;;;;;;;18.80;69.10;;;;;;5035063;28;19909;-76
2022/06/18 03:25:55;;;;;;;;;;;18.80;69.10;;;;;;5035218;28;19952;-73
2022/06/18 03:28:21;;;;;;;;;;;18.80;69.20;;;;;;5034494;28;19942;-73
2022/06/18 03:30:46;;;;;;;;;;;18.80;69.40;;;;;;5035008;28;19913;-73
2022/06/18 03:33:12;;;;;;;;;;;18.90;68.60;;;;;;5035040;28;20282;-72
2022/06/18 03:35:39;;;;;;;;;;;18.90;68.90;;;;;;5034810;28;20457;-73
2022/06/18 03:38:05;;;;;;;;;;;18.90;68.60;;;;;;5034836;28;19996;-72
2022/06/18 03:40:31;;;;;;;;;;;18.90;69.10;;;;;;5034442;28;19939;-73
2022/06/18 03:42:56;;;;;;;;;;;18.90;69.20;;;;;;5034694;28;19971;-72
2022/06/18 03:45:22;;;;;;;;;;;18.90;69.50;;;;;;5035171;28;19905;-72
2022/06/18 03:47:48;;;;;;;;;;;18.90;68.80;;;;;;5034409;28;19912;-73
2022/06/18 03:50:15;;;;;;;;;;;18.90;69.80;;;;;;5034472;28;19905;-72
2022/06/18 03:52:40;;;;;;;;;;;18.90;69.30;;;;;;5034600;28;19913;-72
2022/06/18 03:55:06;;;;;;;;;;;18.90;69.20;;;;;;5034212;28;19958;-73
2022/06/18 03:57:32;;;;;;;;;;;18.90;69.10;;;;;;5034120;28;19905;-71
2022/06/18 03:59:58;;;;;;;;;;;19.00;69.00;;;;;;5034430;28;19909;-73
2022/06/18 04:02:23;;;;;;;;;;;19.00;69.30;;;;;;5034406;28;19905;-73
2022/06/18 04:04:49;;;;;;;;;;;19.00;69.30;;;;;;5033225;28;20335;-72
2022/06/18 04:07:16;;;;;;;;;;;19.00;69.40;;;;;;5034116;28;19912;-73
2022/06/18 04:09:43;;;;;;;;;;;19.10;68.80;;;;;;5034075;28;19928;-73
2022/06/18 04:12:09;;;;;;;;;;;19.10;68.90;;;;;;5033616;28;19913;-71
2022/06/18 04:14:35;;;;;;;;;;;19.20;69.00;;;;;;5034209;28;19915;-71
2022/06/18 04:17:02;;;;;;;;;;;19.20;68.70;;;;;;5034367;28;19905;-73
2022/06/18 04:19:27;;;;;;;;;;;19.20;69.10;;;;;;5034175;28;19905;-72
2022/06/18 04:21:53;;;;;;;;;;;19.30;68.60;;;;;;5034399;28;19905;-72
2022/06/18 04:24:18;;;;;;;;;;;19.40;69.60;;;;;;5033999;28;19912;-73
2022/06/18 04:26:44;;;;;;;;;;;19.40;68.30;;;;;;5033919;28;20113;-72
2022/06/18 04:29:10;;;;;;;;;;;19.40;68.30;;;;;;5033855;28;19999;-72
2022/06/18 04:31:36;;;;;;;;;;;19.40;68.00;;;;;;5033793;28;19909;-72
2022/06/18 04:34:01;;;;;;;;;;;19.40;68.70;;;;;;5034293;28;19999;-73
2022/06/18 04:36:32;;;;;;;;;;;19.40;68.20;;;;;;5034070;28;19920;-73
2022/06/18 04:38:58;;;;;;;;;;;19.50;68.40;;;;;;5034068;28;19905;-73
2022/06/18 04:41:23;;;;;;;;;;;19.50;68.40;;;;;;5033654;28;19912;-73
2022/06/18 04:43:49;;;;;;;;;;;19.50;68.10;;;;;;5032750;28;19905;-72
2022/06/18 04:46:14;;;;;;;;;;;19.50;68.30;;;;;;5033845;28;19909;-73
2022/06/18 04:48:40;;;;;;;;;;;19.50;68.20;;;;;;5033792;28;20262;-73
2022/06/18 04:51:06;;;;;;;;;;;19.60;68.70;;;;;;5032754;28;19909;-72
2022/06/18 04:53:32;;;;;;;;;;;19.60;67.90;;;;;;5033651;28;19909;-72
2022/06/18 04:55:57;;;;;;;;;;;19.60;67.90;;;;;;5033725;28;20259;-72
2022/06/18 04:58:23;;;;;;;;;;;19.70;68.10;;;;;;5033769;28;20385;-73
2022/06/18 05:00:48;;;;;;;;;;;19.70;67.80;;;;;;5033795;28;19909;-72
2022/06/18 05:03:18;;;;;;;;;;;19.80;67.90;;;;;;5033735;28;19912;-73
2022/06/18 05:05:44;;;;;;;;;;;19.80;67.70;;;;;;5033616;28;20004;-71
2022/06/18 05:08:10;;;;;;;;;;;19.90;67.50;;;;;;5033532;28;19940;-73
2022/06/18 05:10:35;;;;;;;;;;;19.90;68.20;;;;;;5032068;28;19959;-70
2022/06/18 05:13:02;;;;;;;;;;;19.90;67.10;;;;;;5033482;28;19948;-73
2022/06/18 05:15:28;;;;;;;;;;;19.90;67.40;;;;;;5033613;28;19912;-74
2022/06/18 05:17:53;;;;;;;;;;;20.00;67.50;;;;;;5033474;28;19995;-74
2022/06/18 05:20:20;;;;;;;;;;;20.00;67.70;;;;;;5032354;28;20303;-74
2022/06/18 05:22:46;;;;;;;;;;;20.10;66.50;;;;;;5033538;28;20267;-72
2022/06/18 05:25:12;;;;;;;;;;;20.10;67.10;;;;;;5035646;28;19916;-72
2022/06/18 05:27:38;;;;;;;;;;;20.10;67.30;;;;;;5037108;28;20399;-72
2022/06/18 05:30:07;;;;;;;;;;;20.10;67.40;;;;;;5035844;28;20003;-72
2022/06/18 05:32:32;;;;;;;;;;;20.10;67.10;;;;;;5037084;28;19909;-72
2022/06/18 05:34:58;;;;;;;;;;;20.10;67.90;;;;;;5036906;28;19919;-70
2022/06/18 05:37:25;;;;;;;;;;;20.10;67.20;;;;;;5036988;28;19905;-73
2022/06/18 05:39:50;;;;;;;;;;;20.10;67.10;;;;;;5036616;28;19967;-73
2022/06/18 05:42:16;;;;;;;;;;;20.10;67.10;;;;;;5037011;28;20318;-73
2022/06/18 05:44:42;;;;;;;;;;;20.10;67.10;;;;;;5036531;28;19905;-75
2022/06/18 05:47:13;;;;;;;;;;;20.20;67.40;;;;;;5036898;28;19909;-73
2022/06/18 05:49:39;;;;;;;;;;;20.20;67.60;;;;;;5036468;28;19909;-73
2022/06/18 05:52:04;;;;;;;;;;;20.30;67.30;;;;;;5036593;28;20298;-74
2022/06/18 05:54:30;;;;;;;;;;;20.30;67.10;;;;;;5036652;28;20276;-73
2022/06/18 05:56:55;;;;;;;;;;;20.40;67.40;;;;;;5037177;28;19912;-73
2022/06/18 05:59:21;;;;;;;;;;;20.40;67.10;;;;;;5036601;28;19951;-73
2022/06/18 06:01:46;;;;;;;;;;;20.50;67.00;;;;;;5036396;28;19911;-73
2022/06/18 06:04:12;;;;;;;;;;;20.50;66.90;;;;;;5035244;28;19947;-73
2022/06/18 06:06:38;;;;;;;;;;;20.60;66.90;;;;;;5036105;28;20342;-73
2022/06/18 06:09:03;;;;;;;;;;;20.70;66.30;;;;;;5036353;28;19952;-74
2022/06/18 06:11:29;;;;;;;;;;;20.70;66.50;;;;;;5036218;28;19909;-73
2022/06/18 06:13:55;;;;;;;;;;;20.70;66.20;;;;;;5036340;28;20268;-73
2022/06/18 06:16:21;;;;;;;;;;;20.70;66.00;;;;;;5036268;28;19912;-75
2022/06/18 06:18:47;;;;;;;;;;;20.80;66.10;;;;;;5036229;28;19905;-74
2022/06/18 06:21:13;;;;;;;;;;;20.80;66.00;;;;;;5036163;28;19905;-73
2022/06/18 06:23:39;;;;;;;;;;;20.80;65.80;;;;;;5036033;28;20509;-73
2022/06/18 06:26:12;;;;;;;;;;;20.90;65.70;;;;;;5035936;28;19920;-72
2022/06/18 06:28:40;;;;;;;;;;;20.80;65.50;;;;;;5036340;28;19931;-73
2022/06/18 06:31:06;;;;;;;;;;;20.90;65.40;;;;;;5035774;28;19909;-73
2022/06/18 06:33:31;;;;;;;;;;;21.00;65.40;;;;;;5035778;28;19909;-73
2022/06/18 06:35:57;;;;;;;;;;;21.10;65.20;;;;;;5035332;28;19905;-73
2022/06/18 06:38:22;;;;;;;;;;;21.10;64.90;;;;;;5036318;28;19905;-74
2022/06/18 06:40:48;;;;;;;;;;;21.10;65.00;;;;;;5035745;28;20351;-72
2022/06/18 06:43:14;;;;;;;;;;;21.20;65.00;;;;;;5035727;28;19905;-74
2022/06/18 06:45:40;;;;;;;;;;;21.20;64.90;;;;;;5035867;28;19905;-74
2022/06/18 06:48:06;;;;;;;;;;;21.20;64.70;;;;;;5034243;28;19905;-74
2022/06/18 06:50:31;;;;;;;;;;;21.10;64.40;;;;;;5035127;28;19912;-76
2022/06/18 06:52:57;;;;;;;;;;;21.10;64.60;;;;;;5034374;28;19909;-74
2022/06/18 06:58:15;;;;;;;;;;;21.10;64.60;;;;;;5035772;28;19931;-74
2022/06/18 07:00:42;;;;;;;;;;;21.10;64.70;;;;;;5035217;28;19905;-73
2022/06/18 07:03:09;;;;;;;;;;;21.10;64.30;;;;;;5034981;28;19905;-73
2022/06/18 07:05:34;;;;;;;;;;;21.10;64.40;;;;;;5034959;28;19912;-74
2022/06/18 07:08:00;;;;;;;;;;;21.10;64.40;;;;;;5035239;28;19905;-72
2022/06/18 07:10:25;;;;;;;;;;;21.10;64.40;;;;;;5034961;28;19912;-73
2022/06/18 07:12:51;;;;;;;;;;;21.10;64.30;;;;;;5035039;28;19909;-74
2022/06/18 07:15:17;;;;;;;;;;;21.20;64.40;;;;;;5035200;28;19912;-73
2022/06/18 07:17:42;;;;;;;;;;;21.20;64.10;;;;;;5034807;28;19905;-73
2022/06/18 07:20:15;;;;;;;;;;;21.30;64.00;;;;;;5035093;28;20016;-73
2022/06/18 07:22:41;;;;;;;;;;;21.30;63.80;;;;;;5035198;28;19991;-73
2022/06/18 07:25:07;;;;;;;;;;;21.30;63.70;;;;;;5034926;28;19941;-73
2022/06/18 07:27:34;;;;;;;;;;;21.30;63.50;;;;;;5034881;28;20268;-73
2022/06/18 07:29:59;;;;;;;;;;;21.40;63.40;;;;;;5034817;28;19916;-73
2022/06/18 07:32:25;;;;;;;;;;;21.50;63.40;;;;;;5034715;28;20321;-73
2022/06/18 07:34:53;;;;;;;;;;;21.50;63.30;;;;;;5034748;28;20386;-71
2022/06/18 07:37:20;;;;;;;;;;;21.60;63.40;;;;;;5034476;28;19921;-73
2022/06/18 07:39:46;;;;;;;;;;;21.60;63.30;;;;;;5034335;28;20311;-73
2022/06/18 07:42:13;;;;;;;;;;;21.70;63.10;;;;;;5034589;28;19909;-72
2022/06/18 07:44:38;;;;;;;;;;;21.80;62.90;;;;;;5034138;28;19954;-72
2022/06/18 07:47:04;;;;;;;;;;;21.80;62.80;;;;;;5033998;28;20255;-74
2022/06/18 07:49:30;;;;;;;;;;;21.90;62.70;;;;;;5034534;28;20409;-73
2022/06/18 07:51:55;;;;;;;;;;;22.00;62.60;;;;;;5034256;28;20008;-73
2022/06/18 07:54:21;;;;;;;;;;;22.10;62.40;;;;;;5034165;28;19959;-74
2022/06/18 07:56:47;;;;;;;;;;;22.10;62.90;;;;;;5033974;28;19905;-74
2022/06/18 07:59:13;;;;;;;;;;;22.20;62.20;;;;;;5033970;28;20375;-73
2022/06/18 08:01:38;;;;;;;;;;;22.30;62.20;;;;;;5034082;28;19916;-73
2022/06/18 08:04:05;;;;;;;;;;;22.40;62.00;;;;;;5034443;28;19905;-72
2022/06/18 08:06:31;;;;;;;;;;;22.50;62.00;;;;;;5034311;28;19996;-73
2022/06/18 08:08:56;;;;;;;;;;;22.70;61.70;;;;;;5034042;28;20024;-73
2022/06/18 08:11:23;;;;;;;;;;;22.80;61.30;;;;;;5033835;28;19920;-72
2022/06/18 08:13:50;;;;;;;;;;;22.90;61.20;;;;;;5033959;28;19979;-73
2022/06/18 08:16:16;;;;;;;;;;;23.00;60.80;;;;;;5033947;28;19909;-73
2022/06/18 08:18:42;;;;;;;;;;;23.00;60.70;;;;;;5033932;28;19974;-73
2022/06/18 08:21:13;;;;;;;;;;;23.10;60.30;;;;;;5034118;28;20363;-73
2022/06/18 08:23:38;;;;;;;;;;;23.10;60.20;;;;;;5032792;28;20275;-73
2022/06/18 08:26:05;;;;;;;;;;;23.20;60.10;;;;;;5033841;28;20003;-73
2022/06/18 08:28:31;;;;;;;;;;;23.30;60.00;;;;;;5033385;28;20279;-74
2022/06/18 08:30:57;;;;;;;;;;;23.40;59.70;;;;;;5033615;28;19979;-73
2022/06/18 08:33:22;;;;;;;;;;;23.40;59.80;;;;;;5033647;28;19909;-74
2022/06/18 08:35:48;;;;;;;;;;;23.50;59.60;;;;;;5033745;28;20028;-73
2022/06/18 08:38:14;;;;;;;;;;;23.50;59.50;;;;;;5033708;28;19913;-73
2022/06/18 08:40:45;;;;;;;;;;;23.50;59.20;;;;;;5033576;28;19905;-73
2022/06/18 08:43:25;;;;;;;;;;;23.40;59.00;;;;;;5033528;28;19909;-73
2022/06/18 08:45:57;;;;;;;;;;;23.30;59.00;;;;;;5033611;28;19905;-73
2022/06/18 08:48:22;;;;;;;;;;;23.20;59.00;;;;;;5033892;28;19912;-73
2022/06/18 08:50:52;;;;;;;;;;;23.20;59.10;;;;;;5033464;28;19917;-73
2022/06/18 08:53:51;;;;;;;;;;;23.30;59.40;;;;;;5033694;28;19968;-73
2022/06/18 08:56:35;;;;;;;;;;;23.30;59.40;;;;;;5042581;28;19940;-72
2022/06/18 08:59:03;;;;;;;;;;;23.40;59.20;;;;;;5034084;28;19948;-73
2022/06/18 09:01:37;;;;;;;;;;;23.50;59.10;;;;;;5037460;28;20355;-74
2022/06/18 09:04:19;;;;;;;;;;;23.50;57.70;;;;;;5037297;28;19909;-75
2022/06/18 09:07:17;;;;;;;;;;;23.50;57.30;;;;;;5037349;28;20351;-73
2022/06/18 09:09:45;;;;;;;;;;;23.60;57.60;;;;;;5047136;28;19905;-73
2022/06/18 09:12:31;;;;;;;;;;;23.60;57.80;;;;;;5037210;28;19913;-74
2022/06/18 09:15:16;;;;;;;;;;;23.60;57.70;;;;;;5036462;28;20263;-74
2022/06/18 09:17:44;;;;;;;;;;;23.70;57.70;;;;;;5037116;28;19905;-74
2022/06/18 09:20:15;;;;;;;;;;;23.70;57.80;;;;;;5037169;28;19906;-73
2022/06/18 09:22:44;;;;;;;;;;;23.80;57.80;;;;;;5036561;28;19905;-75
2022/06/18 09:25:14;;;;;;;;;;;23.90;57.90;;;;;;5036784;28;19954;-73
2022/06/18 09:28:00;;;;;;;;;;;24.00;57.50;;;;;;5035516;28;19960;-73
2022/06/18 09:30:28;;;;;;;;;;;24.00;56.30;;;;;;5035055;28;19905;-74
2022/06/18 09:32:59;;;;;;;;;;;24.10;56.90;;;;;;5036801;28;20414;-74
2022/06/18 09:35:37;;;;;;;;;;;24.10;56.90;;;;;;5036710;28;20370;-74
2022/06/18 09:38:15;;;;;;;;;;;24.10;56.60;;;;;;5036829;28;20344;-74
2022/06/18 09:40:56;;;;;;;;;;;24.10;56.70;;;;;;5036580;28;19911;-73
2022/06/18 09:43:31;;;;;;;;;;;24.10;56.80;;;;;;5035271;28;19905;-73
2022/06/18 09:45:58;;;;;;;;;;;24.10;56.90;;;;;;5037056;28;20251;-73
2022/06/18 09:48:24;;;;;;;;;;;24.20;56.70;;;;;;5036753;28;20343;-72
2022/06/18 09:50:52;;;;;;;;;;;24.20;56.70;;;;;;5036430;28;19920;-71
2022/06/18 09:53:29;;;;;;;;;;;24.20;56.30;;;;;;5036353;28;20366;-73
2022/06/18 09:55:57;;;;;;;;;;;24.20;56.50;;;;;;5035019;28;19911;-73
2022/06/18 09:58:43;;;;;;;;;;;24.20;56.60;;;;;;5036552;28;19909;-73
2022/06/18 10:01:11;;;;;;;;;;;24.20;56.30;;;;;;5039128;28;19909;-74
2022/06/18 10:09:10;;;;;;;;;;;24.20;56.10;;;;;;5036489;28;19919;-73
2022/06/18 10:11:36;;;;;;;;;;;24.20;55.90;;;;;;5035788;28;19913;-74
2022/06/18 10:14:14;;;;;;;;;;;24.30;55.40;;;;;;5041351;28;19905;-74
2022/06/18 10:16:47;;;;;;;;;;;24.30;55.30;;;;;;5035931;28;20438;-73
2022/06/18 10:19:22;;;;;;;;;;;24.30;55.20;;;;;;5036341;28;19905;-74
2022/06/18 10:21:47;;;;;;;;;;;24.20;55.40;;;;;;5036135;28;19905;-74
2022/06/18 10:24:25;;;;;;;;;;;24.20;55.90;;;;;;5035890;28;20240;-73
2022/06/18 10:27:10;;;;;;;;;;;24.20;55.70;;;;;;5035743;28;19917;-76
2022/06/18 10:29:45;;;;;;;;;;;24.10;55.80;;;;;;5036473;28;20259;-74
2022/06/18 10:32:24;;;;;;;;;;;24.00;55.70;;;;;;5018503;28;20371;-73
2022/06/18 10:34:57;;;;;;;;;;;23.90;55.80;;;;;;5035673;28;19947;-74
2022/06/18 10:37:34;;;;;;;;;;;23.80;55.80;;;;;;5035729;28;19905;-72
2022/06/18 10:40:13;;;;;;;;;;;23.70;55.80;;;;;;5035864;28;19909;-73
2022/06/18 10:42:45;;;;;;;;;;;23.70;56.00;;;;;;5035799;28;19909;-73
2022/06/18 10:45:19;;;;;;;;;;;23.70;55.90;;;;;;5035552;28;19912;-74
2022/06/18 10:47:46;;;;;;;;;;;23.80;56.10;;;;;;5034085;28;19909;-73
2022/06/18 10:50:14;;;;;;;;;;;23.70;55.90;;;;;;5035454;28;20008;-73
2022/06/18 10:52:40;;;;;;;;;;;23.80;55.70;;;;;;5035145;28;19913;-74
2022/06/18 10:55:10;;;;;;;;;;;23.80;55.70;;;;;;5035574;28;19916;-73
2022/06/18 10:57:36;;;;;;;;;;;23.90;55.80;;;;;;5035499;28;20397;-74
2022/06/18 11:00:09;;;;;;;;;;;23.90;55.40;;;;;;5035426;28;19944;-74
2022/06/18 11:02:35;;;;;;;;;;;24.10;55.00;;;;;;5035580;28;19905;-74
2022/06/18 11:05:03;;;;;;;;;;;24.10;55.00;;;;;;5035262;28;19944;-76
2022/06/18 11:07:31;;;;;;;;;;;24.20;55.00;;;;;;5035001;28;19955;-74
2022/06/18 11:09:58;;;;;;;;;;;24.10;55.30;;;;;;5035220;28;20366;-74
2022/06/18 11:12:29;;;;;;;;;;;24.20;55.00;;;;;;5034922;28;19916;-74
2022/06/18 11:14:55;;;;;;;;;;;24.10;55.20;;;;;;5034785;28;20355;-73
2022/06/18 11:17:22;;;;;;;;;;;24.10;54.90;;;;;;5034765;28;19909;-74
2022/06/18 11:19:51;;;;;;;;;;;24.10;55.10;;;;;;5034934;28;20046;-74
2022/06/18 11:22:24;;;;;;;;;;;24.10;55.00;;;;;;5034196;28;19905;-74
2022/06/18 11:24:58;;;;;;;;;;;24.20;55.20;;;;;;5035319;28;19912;-75
2022/06/18 11:27:24;;;;;;;;;;;24.30;54.60;;;;;;5034769;28;19975;-73
2022/06/18 11:29:54;;;;;;;;;;;24.40;54.00;;;;;;5034648;28;20287;-74
2022/06/18 11:32:35;;;;;;;;;;;24.50;54.00;;;;;;5034417;28;20363;-74
2022/06/18 11:35:25;;;;;;;;;;;24.50;53.90;;;;;;5034821;28;19905;-73
2022/06/18 11:38:02;;;;;;;;;;;24.50;54.10;;;;;;5034456;28;20278;-73
2022/06/18 11:40:28;;;;;;;;;;;24.40;54.00;;;;;;5034814;28;19958;-74
2022/06/18 11:42:59;;;;;;;;;;;24.50;54.10;;;;;;5033500;28;20322;-73
2022/06/18 11:45:35;;;;;;;;;;;24.40;53.70;;;;;;5034607;28;19912;-73
2022/06/18 11:48:23;;;;;;;;;;;24.40;54.10;;;;;;5033468;28;20276;-75
2022/06/18 11:51:00;;;;;;;;;;;24.30;53.70;;;;;;5034264;28;19912;-73
2022/06/18 11:53:31;;;;;;;;;;;24.30;54.00;;;;;;5034891;28;20413;-74
2022/06/18 11:55:57;;;;;;;;;;;24.30;54.20;;;;;;5034373;28;20264;-73
2022/06/18 11:58:33;;;;;;;;;;;24.20;53.70;;;;;;5034388;28;20328;-74
2022/06/18 12:01:04;;;;;;;;;;;24.20;54.00;;;;;;5033990;28;20007;-74
2022/06/18 12:03:33;;;;;;;;;;;24.20;54.20;;;;;;5033110;28;19905;-73
2022/06/18 12:05:58;;;;;;;;;;;24.30;53.40;;;;;;5034260;28;19909;-72
2022/06/18 12:08:24;;;;;;;;;;;24.30;53.50;;;;;;5034093;28;19905;-72
2022/06/18 12:11:09;;;;;;;;;;;24.40;53.50;;;;;;5033957;28;19999;-73
2022/06/18 12:13:39;;;;;;;;;;;24.50;53.40;;;;;;5033882;28;19908;-74
2022/06/18 12:16:16;;;;;;;;;;;24.50;53.40;;;;;;5034149;28;19912;-74
2022/06/18 12:18:42;;;;;;;;;;;24.60;53.40;;;;;;5034170;28;19905;-74
2022/06/18 12:21:16;;;;;;;;;;;24.60;53.40;;;;;;5034203;28;19905;-74
2022/06/18 12:23:47;;;;;;;;;;;24.70;53.30;;;;;;5033943;28;19912;-73
2022/06/18 12:26:21;;;;;;;;;;;24.90;53.30;;;;;;5033002;28;19949;-73
2022/06/18 12:29:02;;;;;;;;;;;25.00;53.00;;;;;;5034054;28;19921;-73
2022/06/18 12:31:46;;;;;;;;;;;25.00;52.90;;;;;;5033783;28;19920;-74
2022/06/18 12:34:12;;;;;;;;;;;25.10;53.00;;;;;;5038208;28;20404;-73
2022/06/18 12:36:42;;;;;;;;;;;25.10;52.70;;;;;;5040684;28;20007;-73
2022/06/18 12:39:26;;;;;;;;;;;25.10;52.40;;;;;;5040591;28;20271;-73
2022/06/18 12:41:51;;;;;;;;;;;25.10;52.50;;;;;;5040704;28;19941;-73
2022/06/18 12:44:49;;;;;;;;;;;25.10;52.60;;;;;;5040490;28;19912;-74
2022/06/18 12:47:14;;;;;;;;;;;25.00;52.80;;;;;;5049747;28;19912;-73
2022/06/18 12:49:50;;;;;;;;;;;25.00;52.20;;;;;;5040477;28;20292;-74
2022/06/18 12:52:30;;;;;;;;;;;25.00;52.00;;;;;;5040456;28;19956;-74
2022/06/18 12:55:00;;;;;;;;;;;25.10;52.70;;;;;;5040194;28;19905;-73
2022/06/18 12:57:52;;;;;;;;;;;25.20;52.60;;;;;;5040131;28;19905;-74
2022/06/18 13:00:19;;;;;;;;;;;25.30;52.70;;;;;;5040564;28;19952;-74
2022/06/18 13:02:47;;;;;;;;;;;25.50;52.70;;;;;;5040041;28;19963;-74
2022/06/18 13:05:19;;;;;;;;;;;25.50;52.10;;;;;;5040609;28;19905;-74
2022/06/18 13:07:58;;;;;;;;;;;25.60;51.80;;;;;;5039873;28;19905;-74
2022/06/18 13:10:36;;;;;;;;;;;25.80;52.00;;;;;;5040216;28;20036;-74
2022/06/18 13:13:01;;;;;;;;;;;26.00;51.40;;;;;;5040012;28;19913;-74
2022/06/18 13:15:31;;;;;;;;;;;26.20;50.20;;;;;;5040224;28;20047;-73
2022/06/18 13:18:06;;;;;;;;;;;26.30;50.20;;;;;;5039829;28;19988;-74
2022/06/18 13:20:52;;;;;;;;;;;26.40;49.70;;;;;;5040147;28;19905;-73
2022/06/18 13:29:00;;;;;;;;;;;26.20;50.20;;;;;;5040219;28;19974;-74
2022/06/18 13:31:25;;;;;;;;;;;26.40;50.30;;;;;;5039964;28;20359;-72
2022/06/18 13:33:54;;;;;;;;;;;26.80;50.00;;;;;;5040281;28;19905;-74
2022/06/18 13:36:29;;;;;;;;;;;27.30;49.90;;;;;;5039798;28;19958;-74
2022/06/18 13:38:59;;;;;;;;;;;27.70;49.60;;;;;;5039596;28;19978;-74
2022/06/18 13:41:33;;;;;;;;;;;28.00;48.30;;;;;;5039733;28;19947;-73
2022/06/18 13:43:58;;;;;;;;;;;28.10;48.50;;;;;;5039535;28;20369;-74
2022/06/18 13:46:33;;;;;;;;;;;28.20;48.30;;;;;;5035958;28;19905;-72
2022/06/18 13:49:08;;;;;;;;;;;28.10;48.50;;;;;;5037069;28;19909;-72
2022/06/18 13:51:35;;;;;;;;;;;28.00;48.70;;;;;;5036279;28;19913;-74
2022/06/18 13:54:07;;;;;;;;;;;28.00;48.50;;;;;;5036490;28;19905;-74
2022/06/18 13:56:33;;;;;;;;;;;27.80;48.20;;;;;;5036507;28;19956;-73
2022/06/18 13:58:59;;;;;;;;;;;27.70;47.90;;;;;;5036679;28;19948;-73
2022/06/18 14:01:26;;;;;;;;;;;27.60;48.00;;;;;;5036472;28;19905;-73
2022/06/18 14:04:14;;;;;;;;;;;27.50;48.20;;;;;;5036213;28;19905;-74
2022/06/18 14:06:47;;;;;;;;;;;27.40;48.20;;;;;;5036093;28;20295;-73
2022/06/18 14:09:16;;;;;;;;;;;27.40;48.50;;;;;;5036306;28;20274;-75
2022/06/18 14:11:44;;;;;;;;;;;27.30;48.20;;;;;;5036095;28;20344;-73
2022/06/18 14:14:12;;;;;;;;;;;27.40;48.70;;;;;;5035953;28;19909;-73
2022/06/18 14:16:42;;;;;;;;;;;27.50;48.90;;;;;;5036142;28;20047;-73
2022/06/18 14:19:27;;;;;;;;;;;27.50;48.80;;;;;;5036305;28;19905;-74
2022/06/18 14:22:22;;;;;;;;;;;27.60;49.00;;;;;;5036174;28;19905;-75
2022/06/18 14:24:48;;;;;;;;;;;27.50;48.70;;;;;;5039309;28;20263;-72
2022/06/18 14:27:22;;;;;;;;;;;27.30;48.80;;;;;;5035514;28;19921;-73
2022/06/18 14:29:48;;;;;;;;;;;27.20;49.20;;;;;;5036089;28;19905;-74
2022/06/18 14:32:26;;;;;;;;;;;27.00;48.80;;;;;;5035663;28;19913;-73
2022/06/18 14:35:12;;;;;;;;;;;26.90;49.00;;;;;;5035791;28;20346;-74
2022/06/18 14:37:40;;;;;;;;;;;26.80;49.20;;;;;;5038131;28;19905;-74
2022/06/18 14:40:06;;;;;;;;;;;26.70;49.40;;;;;;5035893;28;20251;-73
2022/06/18 14:42:50;;;;;;;;;;;26.70;49.50;;;;;;5035714;28;19981;-73
2022/06/18 14:45:15;;;;;;;;;;;26.70;49.50;;;;;;5035334;28;19921;-75
2022/06/18 14:47:55;;;;;;;;;;;26.60;49.50;;;;;;5035328;28;19913;-73